USCGC Eagle — NRCB — position and weather

sailwx.info

Track history (hours):
 
Tides and Currents Weather Stations Pressure Air Temp Water Temp Dewpoint Dewpoint Depression Visibility Wind Speed Wind Dir Waves Ship Positions

USCGC Eagle (United States)

Training ship of US Coast Guard Academy, and only square-rigger in active service in the US armed services. Ex German ship Horst Wessel.

Ship's website: http://www.cga.edu/eagle/

Last reported at 2014-Jul-24 11:33 UTC. Time now 2014-Jul-24 13:03 UTC.
Position N 41°17' W 071°10'.

AWS

Date/timePositionNaut miles runAvg speedWind from/ knotsBaromVisibWave heightAir tempDewpointWater temp
2014-Jul-24 11:33N 41°17' W 071°10'6 6.0
2014-Jul-24 10:33N 41°12' W 071°14'6 5.8
2014-Jul-24 09:33N 41°07' W 071°09'6 5.7
2014-Jul-24 08:33N 41°03' W 071°04'5 5.2
2014-Jul-24 07:33N 40°59' W 070°59'6 6.1
2014-Jul-24 06:33N 40°55' W 070°53'10 4.2
2014-Jul-24 04:08N 40°48' W 070°44'1 2.6
2014-Jul-24 03:33N 40°47' W 070°45'3 2.8
2014-Jul-24 02:33N 40°45' W 070°47'5 4.7
2014-Jul-24 01:33N 40°46' W 070°53'5 4.8
2014-Jul-24 00:33N 40°48' W 070°59'4 4.3
2014-Jul-23 23:33N 40°48' W 071°05'5 5.2
2014-Jul-23 22:33N 40°48' W 071°12'6 5.7
2014-Jul-23 21:33N 40°49' W 071°19'6 5.9
2014-Jul-23 20:33N 40°49' W 071°27'7 6.7
2014-Jul-23 19:33N 40°49' W 071°36'7 6.7
2014-Jul-23 18:33N 40°45' W 071°29'5 5.4
2014-Jul-23 17:33N 40°39' W 071°30'6 5.6
2014-Jul-23 16:33N 40°34' W 071°29'5 5.1
2014-Jul-23 15:33N 40°29' W 071°28'5 5.1
2014-Jul-23 14:33N 40°24' W 071°28'5 5.4
2014-Jul-23 13:33N 40°18' W 071°27'5 5.4
2014-Jul-23 12:33N 40°13' W 071°26'6 5.7
2014-Jul-23 11:33N 40°08' W 071°23'6 6.2
2014-Jul-23 10:33N 40°02' W 071°20'7 7.4
2014-Jul-23 09:33N 39°57' W 071°14'7 7.1
2014-Jul-23 08:33N 39°52' W 071°07'7 7.4
2014-Jul-23 07:33N 39°48' W 070°59'9 8.1
2014-Jul-23 06:28N 39°43' W 070°50'8 6.6
2014-Jul-23 05:11N 39°37' W 070°41'2 3.6
2014-Jul-23 04:30N 39°35' W 070°40'65127.8
2014-Jul-23 04:00N 39°50' W 072°02'67153.2
2014-Jul-23 03:33N 39°31' W 070°39'5 4.6
2014-Jul-23 02:33N 39°27' W 070°41'4 4.3
2014-Jul-23 01:33N 39°23' W 070°44'4 4.1
2014-Jul-23 00:32N 39°20' W 070°47'3 2.9
2014-Jul-22 23:33N 39°18' W 070°49'2 2.1
2014-Jul-22 22:25N 39°16' W 070°52'2 2.1
2014-Jul-22 21:23N 39°18' W 070°54'2 1.3
2014-Jul-22 19:37N 39°20' W 070°54'3 2.2
2014-Jul-22 18:25N 39°23' W 070°54'4 1.4
2014-Jul-22 15:17N 39°27' W 070°53'2 2.3
2014-Jul-22 14:30N 39°28' W 070°50'3 2.6
2014-Jul-22 13:22N 39°30' W 070°47'2 2.4
2014-Jul-22 12:31N 39°31' W 070°45'1 2.3
2014-Jul-22 12:00N 39°31' W 070°44'2 4.0
2014-Jul-22 11:30N 39°32' W 070°41'5 4.9
2014-Jul-22 10:33N 39°32' W 070°35'6 6.4
2014-Jul-22 09:33N 39°33' W 070°27'6 5.9
2014-Jul-22 08:33N 39°34' W 070°20'12881281.2
2014-Jul-22 07:33N 39°34' W 098°11'1308563.0
2014-Jul-22 05:14N 39°36' W 069°54'43 5.4
2014-Jul-21 21:08N 39°52' W 070°46'7 7.4
2014-Jul-21 20:08N 39°54' W 070°56'5 7.1
2014-Jul-21 19:26N 39°55' W 071°02'5 6.1
2014-Jul-21 18:33N 39°57' W 071°09'10 8.1
2014-Jul-21 17:23N 40°03' W 071°18'11 8.6
2014-Jul-21 16:08N 40°09' W 071°29'5 8.5
2014-Jul-21 15:32N 40°13' W 071°35'19 6.3
2014-Jul-21 12:30N 40°23' W 071°56'54 6.3
2014-Jul-21 04:00N 40°21' W 073°06'47 7.3
2014-Jul-20 21:33N 40°39' W 074°03'  
2014-Jul-18 11:26N 40°46' W 074°00'0 0.0
2014-Jul-18 07:07N 40°46' W 074°00'0 0.0
2014-Jul-18 06:33N 40°46' W 074°00'0 0.0
2014-Jul-18 05:33N 40°46' W 074°00'7 0.8
2014-Jul-17 20:56N 40°41' W 074°07'6 0.8
2014-Jul-17 14:03N 40°44' W 074°01'2 4.9
2014-Jul-17 13:33N 40°42' W 074°02'0 0.3
2014-Jul-17 12:33N 40°42' W 074°02'0 0.0
2014-Jul-17 11:33N 40°42' W 074°02'0 0.5
2014-Jul-17 10:33N 40°41' W 074°02'0 0.0
2014-Jul-17 09:30N 40°41' W 074°02'0 0.0
2014-Jul-17 08:33N 40°41' W 074°02'0 0.0
2014-Jul-17 07:30N 40°41' W 074°02'0 0.1
2014-Jul-17 06:21N 40°41' W 074°02'0 0.0
2014-Jul-17 05:33N 40°41' W 074°02'0 0.0
2014-Jul-17 04:33N 40°41' W 074°02'0 0.0
2014-Jul-17 03:14N 40°41' W 074°02'0 0.0
2014-Jul-17 02:32N 40°41' W 074°02'0 0.1
2014-Jul-17 01:33N 40°41' W 074°02'0 0.0
2014-Jul-17 00:30N 40°41' W 074°02'0 0.0
2014-Jul-16 23:34N 40°41' W 074°02'4 4.0
2014-Jul-16 22:33N 40°37' W 074°03'9 6.8
2014-Jul-16 21:10N 40°30' W 073°56'5 8.8
2014-Jul-16 20:33N 40°27' W 073°49'9 8.9
2014-Jul-16 19:29N 40°22' W 073°39'8 9.0
2014-Jul-16 18:33N 40°18' W 073°29'30 7.5
2014-Jul-16 14:32N 40°14' W 072°50'6 5.4
2014-Jul-16 13:24N 40°11' W 072°43'19 4.9
2014-Jul-16 09:32N 40°05' W 072°19'6 6.4
2014-Jul-16 08:33N 40°04' W 072°11'123.6
2014-Jul-16 08:32N 40°04' W 072°12'7 7.5
2014-Jul-16 07:33N 40°03' W 072°03'7 7.3
2014-Jul-16 06:33N 40°01' W 071°53'7 7.4
2014-Jul-16 05:33N 39°59' W 071°44'7 6.8
2014-Jul-16 04:33N 39°58' W 071°35'6 5.9
2014-Jul-16 03:33N 39°57' W 071°28'10 6.7
2014-Jul-16 02:04N 39°56' W 071°15'4 6.9
2014-Jul-16 01:33N 39°55' W 071°10'7 6.6
2014-Jul-16 00:32N 39°54' W 071°02'31 6.9
2014-Jul-15 20:00N 39°47' W 070°22'  
Track history (hours):
 
Tides and Currents Weather Stations Pressure Air Temp Water Temp Dewpoint Dewpoint Depression Visibility Wind Speed Wind Dir Waves Ship Positions

USCGC Eagle (United States)

Training ship of US Coast Guard Academy, and only square-rigger in active service in the US armed services. Ex German ship Horst Wessel.

Ship's website: http://www.cga.edu/eagle/

Last reported at 2014-Jul-24 11:33 UTC. Time now 2014-Jul-24 13:03 UTC.
Position N 41°17' W 071°10'.

AWS

Date/timePositionNaut miles runAvg speedWind from/ knotsBaromVisibWave heightAir tempDewpointWater temp
2014-Jul-24 11:33N 41°17' W 071°10'6 6.0
2014-Jul-24 10:33N 41°12' W 071°14'6 5.8
2014-Jul-24 09:33N 41°07' W 071°09'6 5.7
2014-Jul-24 08:33N 41°03' W 071°04'5 5.2
2014-Jul-24 07:33N 40°59' W 070°59'6 6.1
2014-Jul-24 06:33N 40°55' W 070°53'10 4.2
2014-Jul-24 04:08N 40°48' W 070°44'1 2.6
2014-Jul-24 03:33N 40°47' W 070°45'3 2.8
2014-Jul-24 02:33N 40°45' W 070°47'5 4.7
2014-Jul-24 01:33N 40°46' W 070°53'5 4.8
2014-Jul-24 00:33N 40°48' W 070°59'4 4.3
2014-Jul-23 23:33N 40°48' W 071°05'5 5.2
2014-Jul-23 22:33N 40°48' W 071°12'6 5.7
2014-Jul-23 21:33N 40°49' W 071°19'6 5.9
2014-Jul-23 20:33N 40°49' W 071°27'7 6.7
2014-Jul-23 19:33N 40°49' W 071°36'7 6.7
2014-Jul-23 18:33N 40°45' W 071°29'5 5.4
2014-Jul-23 17:33N 40°39' W 071°30'6 5.6
2014-Jul-23 16:33N 40°34' W 071°29'5 5.1
2014-Jul-23 15:33N 40°29' W 071°28'5 5.1
2014-Jul-23 14:33N 40°24' W 071°28'5 5.4
2014-Jul-23 13:33N 40°18' W 071°27'5 5.4
2014-Jul-23 12:33N 40°13' W 071°26'6 5.7
2014-Jul-23 11:33N 40°08' W 071°23'6 6.2
2014-Jul-23 10:33N 40°02' W 071°20'7 7.4
2014-Jul-23 09:33N 39°57' W 071°14'7 7.1
2014-Jul-23 08:33N 39°52' W 071°07'7 7.4
2014-Jul-23 07:33N 39°48' W 070°59'9 8.1
2014-Jul-23 06:28N 39°43' W 070°50'8 6.6
2014-Jul-23 05:11N 39°37' W 070°41'2 3.6
2014-Jul-23 04:30N 39°35' W 070°40'65127.8
2014-Jul-23 04:00N 39°50' W 072°02'67153.2
2014-Jul-23 03:33N 39°31' W 070°39'5 4.6
2014-Jul-23 02:33N 39°27' W 070°41'4 4.3
2014-Jul-23 01:33N 39°23' W 070°44'4 4.1
2014-Jul-23 00:32N 39°20' W 070°47'3 2.9
2014-Jul-22 23:33N 39°18' W 070°49'2 2.1
2014-Jul-22 22:25N 39°16' W 070°52'2 2.1
2014-Jul-22 21:23N 39°18' W 070°54'2 1.3
2014-Jul-22 19:37N 39°20' W 070°54'3 2.2
2014-Jul-22 18:25N 39°23' W 070°54'4 1.4
2014-Jul-22 15:17N 39°27' W 070°53'2 2.3
2014-Jul-22 14:30N 39°28' W 070°50'3 2.6
2014-Jul-22 13:22N 39°30' W 070°47'2 2.4
2014-Jul-22 12:31N 39°31' W 070°45'1 2.3
2014-Jul-22 12:00N 39°31' W 070°44'2 4.0
2014-Jul-22 11:30N 39°32' W 070°41'5 4.9
2014-Jul-22 10:33N 39°32' W 070°35'6 6.4
2014-Jul-22 09:33N 39°33' W 070°27'6 5.9
2014-Jul-22 08:33N 39°34' W 070°20'12881281.2
2014-Jul-22 07:33N 39°34' W 098°11'1308563.0
2014-Jul-22 05:14N 39°36' W 069°54'43 5.4
2014-Jul-21 21:08N 39°52' W 070°46'7 7.4
2014-Jul-21 20:08N 39°54' W 070°56'5 7.1
2014-Jul-21 19:26N 39°55' W 071°02'5 6.1
2014-Jul-21 18:33N 39°57' W 071°09'10 8.1
2014-Jul-21 17:23N 40°03' W 071°18'11 8.6
2014-Jul-21 16:08N 40°09' W 071°29'5 8.5
2014-Jul-21 15:32N 40°13' W 071°35'19 6.3
2014-Jul-21 12:30N 40°23' W 071°56'54 6.3
2014-Jul-21 04:00N 40°21' W 073°06'47 7.3
2014-Jul-20 21:33N 40°39' W 074°03'  
2014-Jul-18 11:26N 40°46' W 074°00'0 0.0
2014-Jul-18 07:07N 40°46' W 074°00'0 0.0
2014-Jul-18 06:33N 40°46' W 074°00'0 0.0
2014-Jul-18 05:33N 40°46' W 074°00'7 0.8
2014-Jul-17 20:56N 40°41' W 074°07'6 0.8
2014-Jul-17 14:03N 40°44' W 074°01'2 4.9
2014-Jul-17 13:33N 40°42' W 074°02'0 0.3
2014-Jul-17 12:33N 40°42' W 074°02'0 0.0
2014-Jul-17 11:33N 40°42' W 074°02'0 0.5
2014-Jul-17 10:33N 40°41' W 074°02'0 0.0
2014-Jul-17 09:30N 40°41' W 074°02'0 0.0
2014-Jul-17 08:33N 40°41' W 074°02'0 0.0
2014-Jul-17 07:30N 40°41' W 074°02'0 0.1
2014-Jul-17 06:21N 40°41' W 074°02'0 0.0
2014-Jul-17 05:33N 40°41' W 074°02'0 0.0
2014-Jul-17 04:33N 40°41' W 074°02'0 0.0
2014-Jul-17 03:14N 40°41' W 074°02'0 0.0
2014-Jul-17 02:32N 40°41' W 074°02'0 0.1
2014-Jul-17 01:33N 40°41' W 074°02'0 0.0
2014-Jul-17 00:30N 40°41' W 074°02'0 0.0
2014-Jul-16 23:34N 40°41' W 074°02'4 4.0
2014-Jul-16 22:33N 40°37' W 074°03'9 6.8
2014-Jul-16 21:10N 40°30' W 073°56'5 8.8
2014-Jul-16 20:33N 40°27' W 073°49'9 8.9
2014-Jul-16 19:29N 40°22' W 073°39'8 9.0
2014-Jul-16 18:33N 40°18' W 073°29'30 7.5
2014-Jul-16 14:32N 40°14' W 072°50'6 5.4
2014-Jul-16 13:24N 40°11' W 072°43'19 4.9
2014-Jul-16 09:32N 40°05' W 072°19'6 6.4
2014-Jul-16 08:33N 40°04' W 072°11'123.6
2014-Jul-16 08:32N 40°04' W 072°12'7 7.5
2014-Jul-16 07:33N 40°03' W 072°03'7 7.3
2014-Jul-16 06:33N 40°01' W 071°53'7 7.4
2014-Jul-16 05:33N 39°59' W 071°44'7 6.8
2014-Jul-16 04:33N 39°58' W 071°35'6 5.9
2014-Jul-16 03:33N 39°57' W 071°28'10 6.7
2014-Jul-16 02:04N 39°56' W 071°15'4 6.9
2014-Jul-16 01:33N 39°55' W 071°10'7 6.6
2014-Jul-16 00:32N 39°54' W 071°02'31 6.9
2014-Jul-15 20:00N 39°47' W 070°22'  

Dump ship's entire track history